Time;durP1;ratioP1;P1;durP2;ratioP2;P2;SDS_P1;SDS_P2;PMS_P1;PMS_P2;Temp;Humidity;BMP_temperature;BMP_pressure;BME280_temperature;BME280_humidity;BME280_pressure;Samples;Min_cycle;Max_cycle;Signal;HPM_P1;HPM_P2
2021/10/16 00:01:36;;;;;;;27.07;18.80;;;;;;;6.45;65.35;100677.81;1640517;86;21116;-64
2021/10/16 00:04:02;;;;;;;28.27;18.67;;;;;;;6.49;65.22;100672.55;1622150;86;21787;-63
2021/10/16 00:06:28;;;;;;;26.85;18.90;;;;;;;6.46;65.46;100675.52;1622099;86;21100;-66
2021/10/16 00:08:55;;;;;;;25.70;20.40;;;;;;;6.42;65.44;100674.99;1623854;86;21855;-65
2021/10/16 00:11:21;;;;;;;25.80;19.87;;;;;;;6.39;65.83;100676.61;1624422;86;21130;-63
2021/10/16 00:13:49;;;;;;;27.60;20.03;;;;;;;6.35;66.16;100674.44;1689798;83;21402;-64
2021/10/16 00:16:16;;;;;;;;;;;;;;;6.29;66.42;100674.55;1686135;83;21158;-63
2021/10/16 00:18:42;;;;;;;24.12;17.00;;;;;;;6.27;66.36;100669.05;1688283;83;20207;-63
2021/10/16 00:21:08;;;;;;;25.60;19.52;;;;;;;6.32;66.49;100672.91;1652476;84;21072;-62
2021/10/16 00:23:34;;;;;;;25.30;18.55;;;;;;;6.31;66.62;100665.97;1689847;81;21002;-63
2021/10/16 00:26:00;;;;;;;26.42;20.40;;;;;;;6.27;66.84;100668.55;1712538;81;21064;-63
2021/10/16 00:28:26;;;;;;;27.00;20.48;;;;;;;6.21;67.06;100659.41;1718621;81;21780;-66
2021/10/16 00:30:52;;;;;;;25.97;20.02;;;;;;;6.18;67.40;100659.73;1709843;81;21427;-63
2021/10/16 00:33:18;;;;;;;25.68;18.70;;;;;;;6.12;67.78;100650.22;1709122;81;21501;-62
2021/10/16 00:35:44;;;;;;;28.60;20.62;;;;;;;6.14;67.81;100648.25;1721077;81;21700;-64
2021/10/16 00:38:12;;;;;;;25.20;19.70;;;;;;;6.22;67.51;100650.98;1709013;81;21125;-65
2021/10/16 00:40:38;;;;;;;25.65;20.08;;;;;;;6.22;67.50;100639.08;1714018;81;21021;-65
2021/10/16 00:43:04;;;;;;;26.48;19.98;;;;;;;6.18;67.56;100643.02;1699559;82;21101;-63
2021/10/16 00:45:30;;;;;;;27.48;19.90;;;;;;;6.14;67.80;100639.84;1714233;81;21782;-65
2021/10/16 00:47:56;;;;;;;24.00;19.57;;;;;;;6.11;68.07;100628.22;1709811;81;21077;-68
2021/10/16 00:50:24;;;;;;;24.98;18.25;;;;;;;6.10;68.12;100634.48;1714402;81;21032;-66
2021/10/16 00:52:51;;;;;;;22.80;18.30;;;;;;;6.11;68.27;100630.88;1709245;81;21014;-67
2021/10/16 00:55:19;;;;;;;25.97;19.93;;;;;;;6.18;68.12;100625.81;1719076;81;21128;-72
2021/10/16 00:57:46;;;;;;;24.83;18.57;;;;;;;6.13;68.27;100620.96;1669915;84;21030;-64
2021/10/16 01:00:14;;;;;;;21.93;19.20;;;;;;;6.08;68.35;100614.46;1686838;83;21125;-63
2021/10/16 01:02:42;;;;;;;25.63;20.83;;;;;;;6.04;68.53;100617.41;1678074;83;21001;-64
2021/10/16 01:05:10;;;;;;;23.83;18.47;;;;;;;6.02;68.58;100622.52;1651668;85;21205;-63
2021/10/16 01:07:40;;;;;;;21.97;18.50;;;;;;;6.06;68.70;100624.38;1644555;85;21064;-66
2021/10/16 01:10:11;;;;;;;23.73;18.87;;;;;;;6.12;68.65;100619.31;1676007;83;21139;-66
2021/10/16 01:12:39;;;;;;;20.53;17.80;;;;;;;6.08;68.92;100617.93;1634644;85;21122;-65
2021/10/16 01:15:10;;;;;;;23.50;18.67;;;;;;;5.99;69.32;100612.22;1620663;86;21081;-67
2021/10/16 01:17:38;;;;;;;23.67;18.37;;;;;;;5.94;69.57;100611.34;1625404;85;22024;-64
2021/10/16 01:20:17;;;;;;;23.70;18.77;;;;;;;5.97;69.73;100626.09;1626692;85;21797;-65
2021/10/16 01:22:44;;;;;;;28.07;19.37;;;;;;;6.02;69.74;100627.31;1622673;85;21122;-63
2021/10/16 01:25:18;;;;;;;27.13;20.53;;;;;;;6.01;69.83;100633.60;1625658;85;21148;-65
2021/10/16 01:27:47;;;;;;;23.53;19.13;;;;;;;5.96;69.94;100625.27;1626344;87;21097;-64
2021/10/16 01:30:21;;;;;;;25.67;18.87;;;;;;;5.94;70.19;100623.24;1625560;85;21119;-68
2021/10/16 01:32:48;;;;;;;25.40;19.17;;;;;;;5.94;70.23;100624.56;1643061;84;21058;-66
2021/10/16 01:35:15;;;;;;;23.38;18.60;;;;;;;6.03;70.08;100617.08;1613159;87;21090;-69
2021/10/16 01:37:45;;;;;;;24.40;19.97;;;;;;;6.03;70.14;100613.61;1608350;87;21851;-64
2021/10/16 01:40:14;;;;;;;24.03;20.13;;;;;;;5.99;70.26;100620.16;1607624;86;21896;-64
2021/10/16 01:42:42;;;;;;;24.27;19.27;;;;;;;5.97;70.33;100618.16;1607442;87;21070;-64
2021/10/16 01:45:18;;;;;;;22.20;18.13;;;;;;;5.94;70.36;100611.34;1624582;85;21050;-63
2021/10/16 01:47:51;;;;;;;23.23;19.20;;;;;;;5.99;70.38;100615.72;1639159;85;21363;-63
2021/10/16 01:50:21;;;;;;;25.07;20.23;;;;;;;6.09;70.02;100610.84;1640480;85;21363;-64
2021/10/16 01:52:48;;;;;;;22.57;17.77;;;;;;;6.10;69.98;100605.38;1634884;85;22010;-63
2021/10/16 01:55:14;;;;;;;23.97;18.83;;;;;;;5.98;70.09;100594.20;1634352;85;21819;-63
2021/10/16 01:57:41;;;;;;;25.60;20.12;;;;;;;6.02;70.27;100600.84;1619661;86;21865;-65
2021/10/16 02:00:09;;;;;;;;;;;;;;;6.00;70.48;100598.02;1637885;85;21216;-63
2021/10/16 02:02:37;;;;;;;21.47;16.90;;;;;;;6.03;70.39;100599.87;1647726;84;20292;-67
2021/10/16 02:05:22;;;;;;;22.17;18.17;;;;;;;6.09;70.25;100593.64;1642070;84;21061;-65
2021/10/16 02:07:53;;;;;;;24.23;18.53;;;;;;;6.12;70.26;100595.97;1644942;84;21426;-64
2021/10/16 02:10:20;;;;;;;23.05;19.35;;;;;;;6.10;70.42;100593.97;1643779;84;21181;-63
2021/10/16 02:12:46;;;;;;;26.50;20.02;;;;;;;6.09;70.54;100591.00;1624631;84;21080;-64
2021/10/16 02:15:12;;;;;;;26.12;19.57;;;;;;;6.07;70.70;100595.62;1623759;86;21948;-70
2021/10/16 02:17:40;;;;;;;21.73;18.63;;;;;;;6.09;70.66;100585.70;1661897;83;21093;-67
2021/10/16 02:20:09;;;;;;;22.40;19.13;;;;;;;6.19;70.51;100589.91;1648829;84;21156;-62
2021/10/16 02:22:36;;;;;;;23.23;19.70;;;;;;;6.22;70.33;100588.28;1672458;83;21009;-65
2021/10/16 02:25:03;;;;;;;26.62;19.85;;;;;;;6.21;70.50;100588.43;1664446;84;21385;-66
2021/10/16 02:27:31;;;;;;;24.37;20.07;;;;;;;6.21;70.53;100586.61;1689113;83;21057;-65
2021/10/16 02:29:59;;;;;;;23.70;19.63;;;;;;;6.19;70.75;100582.47;1689517;83;20969;-67
2021/10/16 02:32:25;;;;;;;23.47;18.92;;;;;;;6.22;70.70;100584.31;1689154;83;21406;-67
2021/10/16 02:34:51;;;;;;;25.23;19.32;;;;;;;6.33;70.59;100581.06;1688934;83;21136;-66
2021/10/16 02:37:19;;;;;;;24.53;19.20;;;;;;;6.30;70.42;100572.13;1665116;84;21080;-62
2021/10/16 02:39:45;;;;;;;32.53;21.35;;;;;;;6.34;70.57;100582.23;1688465;83;21881;-64
2021/10/16 02:42:11;;;;;;;28.40;21.65;;;;;;;6.35;70.45;100583.09;1655687;85;21098;-71
2021/10/16 02:44:37;;;;;;;32.10;25.48;;;;;;;6.32;70.70;100582.89;1681697;83;21111;-64
2021/10/16 02:47:04;;;;;;;35.00;28.60;;;;;;;6.37;70.71;100584.59;1667847;84;21329;-63
2021/10/16 02:49:30;;;;;;;34.27;28.38;;;;;;;6.51;70.33;100581.03;1643722;85;21417;-66
2021/10/16 02:51:58;;;;;;;36.40;30.23;;;;;;;6.52;70.29;100578.73;1668705;84;21111;-66
2021/10/16 02:54:24;;;;;;;37.70;31.80;;;;;;;6.52;70.45;100576.09;1668273;84;21879;-65
2021/10/16 02:56:51;;;;;;;35.90;29.50;;;;;;;6.49;70.67;100577.72;1636209;84;21352;-64
2021/10/16 02:59:19;;;;;;;36.07;28.13;;;;;;;6.48;70.85;100580.86;1624577;85;21077;-64
2021/10/16 03:01:47;;;;;;;34.27;25.37;;;;;;;6.53;70.68;100584.36;1650008;85;22455;-71
2021/10/16 03:04:13;;;;;;;32.40;24.77;;;;;;;6.63;70.35;100577.16;1619971;85;21036;-65
2021/10/16 03:06:42;;;;;;;28.43;24.93;;;;;;;6.68;70.24;100575.34;1633683;85;21149;-70
2021/10/16 03:09:08;;;;;;;29.98;23.95;;;;;;;6.64;70.38;100572.17;1619115;86;22510;-63
2021/10/16 03:11:36;;;;;;;29.10;22.07;;;;;;;6.61;70.52;100571.16;1649514;85;21013;-65
2021/10/16 03:14:02;;;;;;;32.58;24.25;;;;;;;6.55;70.70;100567.31;1649228;85;21154;-63
2021/10/16 03:16:30;;;;;;;26.80;20.57;;;;;;;6.59;70.64;100569.16;1620218;86;21060;-66
2021/10/16 03:18:56;;;;;;;29.18;22.13;;;;;;;6.68;70.38;100572.19;1652975;85;21041;-66
2021/10/16 03:21:23;;;;;;;31.35;23.07;;;;;;;6.63;70.27;100557.29;1650848;85;21910;-63
2021/10/16 03:23:49;;;;;;;28.40;22.55;;;;;;;6.66;70.46;100568.05;1652947;85;21059;-58
2021/10/16 03:26:15;;;;;;;29.87;23.27;;;;;;;6.63;70.50;100564.73;1622708;86;21192;-58
2021/10/16 03:28:42;;;;;;;24.32;19.35;;;;;;;6.66;70.47;100564.08;1621739;86;21085;-58
2021/10/16 03:31:08;;;;;;;28.42;20.62;;;;;;;6.71;70.46;100563.12;1657765;85;21033;-56
2021/10/16 03:33:35;;;;;;;26.67;21.27;;;;;;;6.81;69.91;100555.37;1659053;85;21874;-56
2021/10/16 03:36:02;;;;;;;25.32;21.65;;;;;;;6.83;69.75;100561.34;1660070;85;21755;-57
2021/10/16 03:38:29;;;;;;;28.50;22.40;;;;;;;6.79;69.89;100565.30;1659828;85;21763;-56
2021/10/16 03:40:55;;;;;;;23.85;19.77;;;;;;;6.77;70.03;100571.75;1659078;85;21042;-55
2021/10/16 03:43:22;;;;;;;26.37;19.85;;;;;;;6.74;70.03;100566.76;1660205;85;21840;-56
2021/10/16 03:45:48;;;;;;;24.75;18.62;;;;;;;6.76;70.02;100563.45;1660432;83;21091;-55
2021/10/16 03:48:16;;;;;;;24.43;19.70;;;;;;;6.85;69.70;100556.39;1659109;85;21112;-56
2021/10/16 03:50:42;;;;;;;26.25;20.30;;;;;;;6.85;69.66;100556.39;1658903;85;21129;-56
2021/10/16 03:53:08;;;;;;;23.65;19.60;;;;;;;6.79;69.85;100554.70;1659622;85;21036;-55
2021/10/16 03:55:34;;;;;;;26.27;19.82;;;;;;;6.77;69.80;100563.30;1659819;83;21056;-57
2021/10/16 03:58:01;;;;;;;24.25;19.65;;;;;;;6.74;69.90;100567.61;1636596;86;21057;-56
2021/10/16 04:00:27;;;;;;;24.90;19.87;;;;;;;6.78;69.82;100568.09;1659147;85;21069;-55
2021/10/16 04:02:58;;;;;;;26.17;20.80;;;;;;;6.86;69.58;100571.31;1660814;85;21320;-57
2021/10/16 04:05:23;;;;;;;25.40;20.70;;;;;;;6.85;69.59;100561.69;1660537;85;21041;-56
2021/10/16 04:07:49;;;;;;;26.27;19.95;;;;;;;6.81;69.75;100571.77;1662160;85;21032;-57
2021/10/16 04:10:16;;;;;;;24.10;19.87;;;;;;;6.76;69.92;100570.08;1627954;86;21022;-61
2021/10/16 04:12:44;;;;;;;28.10;21.03;;;;;;;6.71;70.04;100565.27;1640049;84;21791;-56
2021/10/16 04:15:10;;;;;;;25.23;20.90;;;;;;;6.76;69.96;100570.93;1629415;86;21030;-55
2021/10/16 04:17:37;;;;;;;26.27;21.67;;;;;;;6.78;69.84;100568.95;1633128;86;21089;-57
2021/10/16 04:20:05;;;;;;;32.78;21.77;;;;;;;6.76;69.97;100569.61;1647209;85;21129;-56
2021/10/16 04:22:33;;;;;;;25.70;20.50;;;;;;;6.74;70.06;100570.27;1640552;85;21077;-59
2021/10/16 04:25:00;;;;;;;26.33;20.30;;;;;;;6.72;70.16;100576.18;1615720;88;21065;-56
2021/10/16 04:27:26;;;;;;;24.12;19.50;;;;;;;6.79;69.98;100575.89;1658353;85;21064;-56
2021/10/16 04:29:54;;;;;;;28.67;22.13;;;;;;;6.90;69.55;100575.30;1651004;86;21151;-57
2021/10/16 04:32:22;;;;;;;27.83;20.70;;;;;;;6.83;69.65;100574.58;1670144;85;21271;-56
2021/10/16 04:34:48;;;;;;;24.07;20.23;;;;;;;6.79;69.71;100570.59;1676909;84;21092;-62
2021/10/16 04:37:15;;;;;;;25.70;21.40;;;;;;;6.73;70.00;100567.77;1673854;85;21923;-58
2021/10/16 04:39:43;;;;;;;26.63;19.87;;;;;;;6.72;70.08;100570.88;1660576;85;21077;-63
2021/10/16 04:42:12;;;;;;;22.93;19.10;;;;;;;6.78;69.92;100574.25;1677966;85;21101;-56
2021/10/16 04:44:39;;;;;;;30.57;23.37;;;;;;;6.83;69.79;100557.86;1666428;85;21970;-58
2021/10/16 04:47:06;;;;;;;27.53;21.77;;;;;;;6.79;69.91;100556.02;1632396;86;21055;-56
2021/10/16 04:49:34;;;;;;;27.40;22.07;;;;;;;6.76;70.10;100565.63;1658954;85;21120;-58
2021/10/16 04:52:04;;;;;;;24.47;19.60;;;;;;;6.73;70.35;100567.27;1629770;86;21863;-58
2021/10/16 04:54:31;;;;;;;28.00;21.37;;;;;;;6.78;70.23;100574.25;1632520;86;21040;-59
2021/10/16 04:56:57;;;;;;;28.07;21.00;;;;;;;6.89;69.93;100569.14;1665323;84;21771;-57
2021/10/16 04:59:24;;;;;;;26.40;20.80;;;;;;;6.94;69.79;100566.03;1670047;84;21022;-59
2021/10/16 05:01:54;;;;;;;26.10;21.27;;;;;;;6.97;69.74;100568.38;1647185;85;21012;-58
2021/10/16 05:04:21;;;;;;;26.90;20.77;;;;;;;6.99;70.12;100560.59;1643425;86;22028;-59
2021/10/16 05:06:48;;;;;;;26.27;22.63;;;;;;;7.01;70.51;100560.44;1630576;86;21344;-58
2021/10/16 05:09:15;;;;;;;24.13;20.63;;;;;;;7.01;70.66;100567.89;1630787;86;21088;-57
2021/10/16 05:11:41;;;;;;;24.55;19.45;;;;;;;7.06;71.14;100563.92;1649198;85;21145;-58
2021/10/16 05:14:07;;;;;;;25.77;20.57;;;;;;;7.12;70.93;100559.30;1638324;86;21057;-57
2021/10/16 05:16:34;;;;;;;28.47;21.30;;;;;;;7.11;71.20;100550.53;1628583;86;21093;-57
2021/10/16 05:19:01;;;;;;;26.82;21.65;;;;;;;7.06;71.42;100554.14;1610363;86;21111;-60
2021/10/16 05:21:28;;;;;;;27.63;22.00;;;;;;;7.03;71.67;100551.83;1632551;86;21117;-60
2021/10/16 05:23:54;;;;;;;;;;;;;;;7.02;72.09;100554.95;1673818;84;21081;-60
2021/10/16 05:26:22;;;;;;;25.93;20.27;;;;;;;7.08;72.29;100553.48;1662085;85;20162;-62
2021/10/16 05:28:48;;;;;;;28.40;22.83;;;;;;;7.11;72.18;100554.50;1627006;86;21115;-58
2021/10/16 05:31:14;;;;;;;28.67;22.95;;;;;;;7.09;72.61;100559.14;1665591;84;21053;-59
2021/10/16 05:33:41;;;;;;;27.45;21.70;;;;;;;7.01;73.01;100557.80;1671495;84;21116;-64
2021/10/16 05:36:07;;;;;;;32.55;23.47;;;;;;;6.96;73.14;100564.05;1641579;85;21089;-60
2021/10/16 05:38:33;;;;;;;26.75;21.15;;;;;;;6.96;73.33;100556.93;1646090;85;21401;-62
2021/10/16 05:41:00;;;;;;;32.73;23.05;;;;;;;6.87;73.21;100524.76;1661104;85;21801;-60
2021/10/16 05:43:26;;;;;;;33.28;22.42;;;;;;;6.99;73.13;100541.22;1678388;85;21341;-59
2021/10/16 05:45:54;;;;;;;27.20;21.70;;;;;;;7.01;73.30;100545.87;1663962;84;21343;-60
2021/10/16 05:48:21;;;;;;;;;;;;;;;7.00;73.49;100554.29;1674295;85;21092;-62
2021/10/16 05:50:48;;;;;;;;;;;;;;;7.04;73.39;100552.16;1633919;85;20161;-61
2021/10/16 05:53:15;;;;;;;26.87;19.80;;;;;;;7.14;73.29;100547.56;1619793;86;20138;-61
2021/10/16 05:55:41;;;;;;;25.85;20.68;;;;;;;7.16;73.31;100545.58;1640149;85;21789;-62
2021/10/16 05:58:07;;;;;;;25.48;22.02;;;;;;;7.18;73.47;100552.05;1657749;85;21065;-61
2021/10/16 06:00:34;;;;;;;25.08;20.77;;;;;;;7.18;73.48;100550.73;1648888;85;21104;-62
2021/10/16 06:03:01;;;;;;;26.10;20.43;;;;;;;7.22;73.50;100558.69;1642072;86;21338;-61
2021/10/16 06:05:29;;;;;;;25.53;20.73;;;;;;;7.33;73.12;100556.24;1646878;86;21057;-61
2021/10/16 06:07:56;;;;;;;28.30;21.48;;;;;;;7.46;72.91;100559.25;1645162;86;21453;-60
2021/10/16 06:10:23;;;;;;;26.53;20.27;;;;;;;7.53;72.51;100552.28;1617322;87;21640;-62
2021/10/16 06:12:49;;;;;;;26.90;22.07;;;;;;;7.56;72.72;100555.95;1631519;86;21812;-61
2021/10/16 06:15:15;;;;;;;28.17;22.40;;;;;;;7.58;72.97;100552.63;1658859;85;21086;-60
2021/10/16 06:17:41;;;;;;;33.83;22.22;;;;;;;7.60;72.92;100554.63;1645187;85;21078;-59
2021/10/16 06:20:10;;;;;;;29.00;20.67;;;;;;;7.71;72.82;100557.46;1659422;85;21085;-58
2021/10/16 06:22:37;;;;;;;29.27;23.23;;;;;;;7.83;72.42;100547.86;1654332;84;22021;-58
2021/10/16 06:25:05;;;;;;;32.40;22.10;;;;;;;7.82;72.20;100532.91;1643300;85;21128;-58
2021/10/16 06:27:32;;;;;;;28.03;22.17;;;;;;;7.88;72.31;100538.91;1660120;85;21124;-60
2021/10/16 06:29:58;;;;;;;31.80;22.10;;;;;;;7.86;72.07;100539.58;1655465;85;21952;-59
2021/10/16 06:32:25;;;;;;;29.97;20.83;;;;;;;7.87;72.04;100547.34;1641830;85;21092;-59
2021/10/16 06:34:52;;;;;;;27.40;21.07;;;;;;;7.94;71.96;100552.83;1660990;84;21068;-60
2021/10/16 06:37:19;;;;;;;24.63;21.80;;;;;;;8.10;71.59;100559.48;1619321;86;21121;-61
2021/10/16 06:39:45;;;;;;;24.37;19.82;;;;;;;8.15;71.38;100561.62;1644867;85;21066;-60
2021/10/16 06:42:11;;;;;;;24.30;20.60;;;;;;;8.14;71.37;100569.27;1654976;85;21104;-59
2021/10/16 06:44:42;;;;;;;27.60;20.60;;;;;;;8.09;71.31;100564.95;1648658;84;21115;-60
2021/10/16 06:47:13;;;;;;;27.67;22.00;;;;;;;8.02;71.46;100560.78;1665975;84;21800;-61
2021/10/16 06:49:41;;;;;;;26.07;20.07;;;;;;;8.10;71.79;100555.97;1643885;86;21390;-59
2021/10/16 06:52:08;;;;;;;28.23;21.07;;;;;;;8.16;71.14;100555.33;1687866;83;21140;-60
2021/10/16 06:54:34;;;;;;;;;;;;;;;8.19;71.38;100557.16;1645211;86;21088;-60
2021/10/16 06:57:00;;;;;;;27.50;21.13;;;;;;;8.19;71.37;100553.17;1660134;84;20168;-60
2021/10/16 06:59:27;;;;;;;24.00;20.43;;;;;;;8.09;71.23;100549.02;1687418;83;21292;-58
2021/10/16 07:01:53;;;;;;;25.08;19.55;;;;;;;8.22;71.24;100558.63;1651605;85;22612;-60
2021/10/16 07:04:21;;;;;;;24.43;21.27;;;;;;;8.36;70.86;100557.11;1688031;83;21163;-61
2021/10/16 07:06:50;;;;;;;25.07;21.07;;;;;;;8.44;70.77;100558.95;1669959;84;21131;-61
2021/10/16 07:09:18;;;;;;;26.83;22.23;;;;;;;8.45;70.84;100560.11;1670200;84;21827;-61
2021/10/16 07:11:44;;;;;;;26.70;23.18;;;;;;;8.42;70.90;100552.50;1670242;83;21057;-59
2021/10/16 07:14:11;;;;;;;27.50;22.67;;;;;;;8.42;71.05;100547.67;1696871;83;21043;-58
2021/10/16 07:16:37;;;;;;;26.35;21.57;;;;;;;8.43;71.01;100555.47;1697284;83;21040;-59
2021/10/16 07:19:05;;;;;;;31.73;23.47;;;;;;;8.49;70.71;100557.45;1667459;84;21146;-60
2021/10/16 07:21:32;;;;;;;30.50;24.67;;;;;;;8.57;70.61;100548.15;1694069;83;21032;-61
2021/10/16 07:23:58;;;;;;;38.65;25.77;;;;;;;8.57;70.48;100551.31;1670840;84;21821;-61
2021/10/16 07:26:24;;;;;;;;;;;;;;;8.50;70.39;100537.86;1692320;83;21192;-63
2021/10/16 07:28:51;;;;;;;35.07;25.00;;;;;;;8.52;70.80;100545.16;1670668;84;20636;-60
2021/10/16 07:31:18;;;;;;;32.75;24.98;;;;;;;8.45;71.13;100548.16;1671224;85;21299;-59
2021/10/16 07:33:44;;;;;;;39.03;25.90;;;;;;;8.51;71.13;100542.67;1668215;84;21032;-60
2021/10/16 07:36:10;;;;;;;30.97;24.70;;;;;;;8.61;70.78;100542.47;1661813;85;21067;-62
2021/10/16 07:38:36;;;;;;;37.58;27.98;;;;;;;8.67;70.78;100544.47;1661016;85;21074;-68
2021/10/16 07:41:02;;;;;;;29.45;25.23;;;;;;;8.66;70.79;100554.25;1656206;85;21084;-65
2021/10/16 07:43:28;;;;;;;33.43;24.27;;;;;;;8.70;70.74;100556.07;1686620;83;21650;-66
2021/10/16 07:45:55;;;;;;;27.22;23.73;;;;;;;8.73;70.67;100551.25;1669713;83;21020;-63
2021/10/16 07:48:21;;;;;;;34.70;25.08;;;;;;;8.77;70.74;100550.41;1667542;84;21900;-66
2021/10/16 07:50:47;;;;;;;38.25;25.08;;;;;;;8.90;70.45;100561.83;1652410;84;21762;-65
2021/10/16 07:53:13;;;;;;;30.12;24.82;;;;;;;8.93;70.21;100564.16;1670367;84;21319;-70
2021/10/16 07:55:40;;;;;;;34.33;24.57;;;;;;;8.75;70.32;100534.63;1667525;85;21048;-66
2021/10/16 07:58:05;;;;;;;31.25;25.65;;;;;;;8.93;70.25;100559.66;1674266;83;21482;-68
2021/10/16 08:00:33;;;;;;;34.10;23.50;;;;;;;8.92;70.36;100563.30;1663475;83;21111;-64
2021/10/16 08:02:59;;;;;;;37.60;24.25;;;;;;;8.99;70.16;100563.46;1660560;84;21100;-65
2021/10/16 08:05:25;;;;;;;41.58;25.37;;;;;;;9.08;69.97;100550.94;1659463;84;21130;-66
2021/10/16 08:07:52;;;;;;;33.13;23.07;;;;;;;9.16;69.78;100549.08;1634584;86;21353;-68
2021/10/16 08:10:18;;;;;;;28.38;24.02;;;;;;;9.16;69.66;100535.78;1644148;86;21878;-67
2021/10/16 08:12:45;;;;;;;26.55;23.65;;;;;;;9.29;69.45;100546.38;1644172;84;21033;-68
2021/10/16 08:15:11;;;;;;;31.35;22.80;;;;;;;9.34;69.26;100546.66;1687645;83;20990;-66
2021/10/16 08:17:37;;;;;;;31.00;23.02;;;;;;;9.46;68.96;100551.09;1641020;86;21013;-65
2021/10/16 08:20:06;;;;;;;32.20;23.90;;;;;;;9.57;68.60;100544.52;1677933;84;21217;-65
2021/10/16 08:22:32;;;;;;;29.87;23.20;;;;;;;9.62;68.44;100546.98;1682712;83;21162;-73
2021/10/16 08:24:58;;;;;;;30.23;24.05;;;;;;;9.64;68.32;100542.81;1650396;85;21074;-66
2021/10/16 08:27:24;;;;;;;25.65;22.77;;;;;;;9.65;68.50;100547.14;1657119;85;21104;-63
2021/10/16 08:29:50;;;;;;;29.55;21.25;;;;;;;9.66;68.54;100546.98;1663075;85;21081;-65
2021/10/16 08:32:17;;;;;;;31.57;23.12;;;;;;;9.77;68.53;100555.54;1664960;84;21060;-65
2021/10/16 08:34:43;;;;;;;27.63;23.00;;;;;;;9.83;68.18;100537.52;1673533;85;21037;-66
2021/10/16 08:37:09;;;;;;;26.00;23.15;;;;;;;9.85;68.27;100536.34;1672422;85;21159;-68
2021/10/16 08:39:35;;;;;;;30.23;23.60;;;;;;;9.86;68.27;100545.98;1687324;84;21325;-65
2021/10/16 08:42:02;;;;;;;27.67;22.37;;;;;;;9.84;68.35;100538.67;1685457;85;21857;-64
2021/10/16 08:44:28;;;;;;;27.98;23.25;;;;;;;9.85;68.36;100540.83;1682352;83;21050;-65
2021/10/16 08:46:57;;;;;;;29.32;23.20;;;;;;;8.61;68.30;100322.79;1691442;83;21147;-67
2021/10/16 08:49:27;;;;;;;30.97;23.63;;;;;;;9.93;68.51;100530.95;1687510;83;21888;-65
2021/10/16 08:51:54;;;;;;;30.20;23.50;;;;;;;9.94;68.49;100533.09;1657210;85;21398;-64
2021/10/16 08:54:20;;;;;;;27.25;23.77;;;;;;;9.97;68.37;100522.61;1650402;85;21196;-68
2021/10/16 08:56:48;;;;;;;26.53;22.67;;;;;;;10.00;68.21;100529.73;1666824;84;20994;-66
2021/10/16 08:59:15;;;;;;;30.05;23.12;;;;;;;10.07;68.20;100535.16;1638463;86;22019;-64
2021/10/16 09:02:04;;;;;;;26.80;23.90;;;;;;;10.16;67.84;100524.75;1662214;84;21024;-65
2021/10/16 09:04:33;;;;;;;31.33;24.23;;;;;;;10.29;67.37;100538.28;1683802;83;21020;-66
2021/10/16 09:07:00;;;;;;;33.20;25.20;;;;;;;10.27;67.20;100544.30;1687506;83;21088;-64
2021/10/16 09:09:31;;;;;;;31.20;25.97;;;;;;;10.26;67.33;100547.95;1650329;85;21777;-63
2021/10/16 09:11:57;;;;;;;33.07;24.43;;;;;;;10.27;67.35;100547.47;1647594;84;21230;-65
2021/10/16 09:14:27;;;;;;;27.77;24.03;;;;;;;10.30;67.31;100544.42;1644164;85;21821;-64
2021/10/16 09:19:30;;;;;;;34.03;24.70;;;;;;;10.62;66.76;100542.47;1800205;79;23386;-65
2021/10/16 09:22:03;;;;;;;25.13;22.03;;;;;;;10.64;66.23;100531.97;1777843;80;21855;-70
2021/10/16 09:24:38;;;;;;;29.07;23.83;;;;;;;10.82;65.60;100533.42;1781666;80;21006;-64
2021/10/16 09:27:11;;;;;;;26.87;22.37;;;;;;;10.93;65.21;100534.80;1776820;80;21791;-66
2021/10/16 09:29:42;;;;;;;28.27;22.53;;;;;;;10.95;64.81;100526.92;1770847;80;21007;-65
2021/10/16 09:32:12;;;;;;;27.37;23.10;;;;;;;11.12;63.99;100533.39;1776639;80;21081;-65
2021/10/16 09:34:42;;;;;;;27.43;23.33;;;;;;;11.21;63.71;100528.27;1722521;80;21079;-64
2021/10/16 09:37:20;;;;;;;25.60;20.53;;;;;;;11.32;63.43;100530.45;1702962;82;21125;-67
2021/10/16 09:39:57;;;;;;;27.22;20.88;;;;;;;11.44;63.16;100528.09;1668545;84;21296;-64
2021/10/16 09:42:44;;;;;;;30.60;21.35;;;;;;;11.56;62.37;100527.08;1660931;84;21338;-73
2021/10/16 09:45:15;;;;;;;23.07;20.60;;;;;;;11.47;61.24;100511.20;1670638;84;21850;-66
2021/10/16 09:47:56;;;;;;;25.72;19.57;;;;;;;11.65;61.08;100528.61;1671958;84;21038;-65
2021/10/16 09:50:23;;;;;;;27.17;21.97;;;;;;;11.63;61.13;100531.98;1666590;84;21105;-65
2021/10/16 09:52:51;;;;;;;30.32;21.90;;;;;;;11.63;61.14;100527.46;1616755;85;21082;-68
2021/10/16 09:55:18;;;;;;;28.07;22.60;;;;;;;11.70;61.47;100530.21;1654682;84;21751;-66
2021/10/16 09:57:46;;;;;;;27.82;21.57;;;;;;;11.82;61.33;100523.84;1661544;84;21050;-64
2021/10/16 10:00:16;;;;;;;23.57;20.80;;;;;;;11.96;60.90;100522.98;1666056;84;21177;-68
2021/10/16 10:02:54;;;;;;;24.90;21.00;;;;;;;12.11;60.29;100518.04;1679484;84;21443;-67
2021/10/16 10:05:21;;;;;;;24.03;20.57;;;;;;;12.21;59.52;100522.55;1676725;84;21072;-68
2021/10/16 10:07:48;;;;;;;22.13;19.77;;;;;;;12.22;59.09;100518.84;1683675;84;21707;-66
2021/10/16 10:10:15;;;;;;;21.37;19.12;;;;;;;12.22;59.19;100521.52;1675754;84;21974;-64
2021/10/16 10:12:41;;;;;;;23.57;20.35;;;;;;;12.23;58.95;100515.98;1680359;84;21180;-65
2021/10/16 10:15:10;;;;;;;24.15;20.37;;;;;;;12.25;58.31;100511.78;1670322;84;21931;-65
2021/10/16 10:17:38;;;;;;;20.82;17.65;;;;;;;12.32;58.18;100500.63;1687313;84;21946;-64
2021/10/16 10:20:13;;;;;;;24.47;17.77;;;;;;;12.41;57.52;100499.46;1680924;84;21117;-65
2021/10/16 10:22:42;;;;;;;22.82;18.70;;;;;;;12.51;56.96;100495.09;1682181;84;21028;-66
2021/10/16 10:25:25;;;;;;;19.27;17.07;;;;;;;12.62;56.99;100495.02;1691588;84;21450;-65
2021/10/16 10:27:55;;;;;;;19.98;17.45;;;;;;;12.66;55.90;100494.45;1681288;84;21030;-65
2021/10/16 10:30:45;;;;;;;20.80;17.15;;;;;;;12.71;56.24;100487.67;1683813;84;21114;-64
2021/10/16 10:33:22;;;;;;;22.80;17.37;;;;;;;12.77;56.17;100477.02;1680758;83;21115;-64
2021/10/16 10:36:20;;;;;;;17.90;16.00;;;;;;;12.90;55.45;100476.74;1694446;83;21929;-66
2021/10/16 10:38:47;;;;;;;18.57;14.78;;;;;;;12.98;54.50;100472.05;1695610;83;21104;-65
2021/10/16 10:41:30;;;;;;;21.23;15.40;;;;;;;13.02;53.81;100475.97;1694494;83;21074;-64
2021/10/16 10:43:57;;;;;;;16.17;14.33;;;;;;;13.04;53.40;100473.09;1681561;83;21135;-65
2021/10/16 10:46:30;;;;;;;16.75;14.35;;;;;;;13.04;53.01;100472.58;1680709;84;21028;-65
2021/10/16 10:49:10;;;;;;;18.30;14.35;;;;;;;13.05;53.04;100468.89;1648293;85;21071;-65
2021/10/16 10:51:38;;;;;;;16.80;15.03;;;;;;;13.00;52.97;100457.95;1652221;85;21045;-66
2021/10/16 10:54:16;;;;;;;15.60;14.00;;;;;;;13.05;53.14;100468.89;1657352;85;21077;-63
2021/10/16 10:56:47;;;;;;;18.05;13.60;;;;;;;13.07;53.00;100463.83;1692157;83;21145;-66
2021/10/16 10:59:16;;;;;;;18.85;14.33;;;;;;;13.10;52.97;100460.24;1699098;83;21014;-66
2021/10/16 11:01:52;;;;;;;17.62;14.80;;;;;;;13.13;52.76;100463.02;1688949;83;21083;-67
2021/10/16 11:04:46;;;;;;;17.30;12.90;;;;;;;13.15;52.62;100460.99;1698500;83;20988;-65
2021/10/16 11:07:17;;;;;;;25.37;14.13;;;;;;;13.16;52.44;100455.41;1697573;83;21932;-66
2021/10/16 11:09:44;;;;;;;18.48;12.15;;;;;;;13.17;52.28;100455.73;1694180;83;21059;-65
2021/10/16 11:12:12;;;;;;;16.57;11.57;;;;;;;13.19;52.40;100456.88;1688283;83;21834;-65
2021/10/16 11:14:41;;;;;;;13.43;11.48;;;;;;;13.19;51.84;100459.55;1675925;84;21354;-64
2021/10/16 11:17:12;;;;;;;18.10;11.33;;;;;;;13.18;51.72;100448.52;1671588;84;21849;-64
2021/10/16 11:19:53;;;;;;;13.43;11.33;;;;;;;13.17;52.01;100452.24;1670147;84;21386;-68
2021/10/16 11:22:39;;;;;;;19.92;11.95;;;;;;;13.16;51.75;100450.58;1678668;83;21853;-65
2021/10/16 11:25:06;;;;;;;11.68;10.50;;;;;;;13.13;51.41;100438.44;1699322;83;21185;-65